createdAt,value
2023-04-27T00:01:43.836Z,100426.06
2023-04-27T00:04:11.094Z,100433.31
2023-04-27T00:06:38.110Z,100434.38
2023-04-27T00:09:05.091Z,100430.75
2023-04-27T00:11:32.302Z,100434.28
2023-04-27T00:13:59.198Z,100422.44
2023-04-27T00:16:26.671Z,100426.53
2023-04-27T00:18:54.020Z,100419.59
2023-04-27T00:21:21.069Z,100418.03
2023-04-27T00:23:48.007Z,100423.06
2023-04-27T00:26:14.982Z,100441.78
2023-04-27T00:28:42.472Z,100436.03
2023-04-27T00:31:09.545Z,100438.97
2023-04-27T00:33:36.870Z,100434.63
2023-04-27T00:36:04.017Z,100439.63
2023-04-27T00:38:31.565Z,100436.34
2023-04-27T00:41:06.944Z,100435.84
2023-04-27T00:43:45.724Z,100426.53
2023-04-27T00:46:14.692Z,100431.50
2023-04-27T00:48:42.413Z,100435.31
2023-04-27T00:51:09.292Z,100437.00
2023-04-27T00:53:38.049Z,100436.34
2023-04-27T00:56:06.997Z,100435.31
2023-04-27T00:58:34.178Z,100438.16
2023-04-27T01:01:01.665Z,100432.53
2023-04-27T01:03:28.812Z,100419.88
2023-04-27T01:05:56.852Z,100417.84
2023-04-27T01:08:24.602Z,100414.94
2023-04-27T01:10:51.769Z,100415.28
2023-04-27T01:13:19.078Z,100409.28
2023-04-27T01:15:46.090Z,100411.09
2023-04-27T01:18:13.779Z,100412.97
2023-04-27T01:20:42.297Z,100411.41
2023-04-27T01:23:14.840Z,100408.66
2023-04-27T01:25:43.711Z,100421.16
2023-04-27T01:28:10.737Z,100424.06
2023-04-27T01:30:37.709Z,100427.63
2023-04-27T01:33:04.839Z,100429.38
2023-04-27T01:35:31.787Z,100429.69
2023-04-27T01:37:58.948Z,100434.72
2023-04-27T01:40:25.962Z,100441.38
2023-04-27T01:42:52.877Z,100434.72
2023-04-27T01:45:19.826Z,100437.63
2023-04-27T01:47:46.714Z,100437.50
2023-04-27T01:50:13.647Z,100438.50
2023-04-27T01:52:40.590Z,100436.16
2023-04-27T01:55:08.152Z,100440.03
2023-04-27T01:57:35.018Z,100441.19
2023-04-27T02:00:01.966Z,100445.72
2023-04-27T02:02:29.067Z,100446.22
2023-04-27T02:04:56.088Z,100443.66
2023-04-27T02:07:24.255Z,100438.97
2023-04-27T02:09:51.179Z,100433.50
2023-04-27T02:12:18.127Z,100430.41
2023-04-27T02:14:45.100Z,100413.69
2023-04-27T02:17:11.986Z,100422.22
2023-04-27T02:19:38.922Z,100415.22
2023-04-27T02:22:06.208Z,100416.47
2023-04-27T02:24:33.149Z,100421.44
2023-04-27T02:27:00.040Z,100428.09
2023-04-27T02:29:31.305Z,100411.22
2023-04-27T02:31:58.812Z,100409.00
2023-04-27T02:34:25.930Z,100421.78
2023-04-27T02:36:52.852Z,100413.13
2023-04-27T02:39:19.769Z,100413.50
2023-04-27T02:41:46.682Z,100409.75
2023-04-27T02:44:13.547Z,100407.47
2023-04-27T02:46:40.560Z,100413.59
2023-04-27T02:49:07.555Z,100415.25
2023-04-27T02:51:34.718Z,100411.94
2023-04-27T02:54:01.699Z,100422.16
2023-04-27T02:56:28.882Z,100430.16
2023-04-27T02:58:56.333Z,100418.56
2023-04-27T03:01:23.554Z,100423.00
2023-04-27T03:03:50.630Z,100419.03
2023-04-27T03:06:17.648Z,100420.19
2023-04-27T03:08:44.636Z,100422.06
2023-04-27T03:11:12.581Z,100414.19
2023-04-27T03:13:42.122Z,100423.94
2023-04-27T03:16:12.346Z,100423.59
2023-04-27T03:18:40.091Z,100433.84
2023-04-27T03:21:08.937Z,100439.25
2023-04-27T03:23:36.433Z,100436.84
2023-04-27T03:26:12.344Z,100460.44
2023-04-27T03:28:40.099Z,100462.19
2023-04-27T03:31:11.904Z,100460.19
2023-04-27T03:33:39.682Z,100452.13
2023-04-27T03:36:08.761Z,100450.69
2023-04-27T03:38:35.981Z,100444.16
2023-04-27T03:41:02.943Z,100441.69
2023-04-27T03:43:29.899Z,100440.19
2023-04-27T03:45:56.869Z,100435.91
2023-04-27T03:48:23.990Z,100434.16
2023-04-27T03:50:51.261Z,100443.44
2023-04-27T03:53:18.198Z,100445.06
2023-04-27T03:55:45.423Z,100447.94
2023-04-27T03:58:12.728Z,100457.06
2023-04-27T04:00:40.087Z,100460.50
2023-04-27T04:03:07.880Z,100462.16
2023-04-27T04:05:35.448Z,100457.63
2023-04-27T04:08:02.790Z,100452.13
2023-04-27T04:10:29.936Z,100456.59
2023-04-27T04:12:56.957Z,100462.69
2023-04-27T04:15:23.928Z,100460.63
2023-04-27T04:17:51.325Z,100455.34
2023-04-27T04:20:18.429Z,100447.19
2023-04-27T04:22:45.411Z,100457.38
2023-04-27T04:25:13.072Z,100463.47
2023-04-27T04:27:41.006Z,100473.81
2023-04-27T04:30:08.591Z,100474.44
2023-04-27T04:32:37.830Z,100458.94
2023-04-27T04:35:06.635Z,100454.47
2023-04-27T04:37:35.365Z,100467.47
2023-04-27T04:40:09.073Z,100461.75
2023-04-27T04:42:37.687Z,100455.41
2023-04-27T04:45:05.459Z,100462.00
2023-04-27T04:47:32.452Z,100452.97
2023-04-27T04:49:59.890Z,100453.78
2023-04-27T04:52:26.864Z,100459.59
2023-04-27T04:54:54.088Z,100470.72
2023-04-27T04:57:21.395Z,100473.78
2023-04-27T04:59:48.338Z,100477.78
2023-04-27T05:02:15.268Z,100478.94
2023-04-27T05:04:42.240Z,100480.34
2023-04-27T05:07:12.003Z,100491.88
2023-04-27T05:09:41.362Z,100492.81
2023-04-27T05:12:08.430Z,100495.06
2023-04-27T05:14:35.786Z,100494.56
2023-04-27T05:17:02.745Z,100488.97
2023-04-27T05:19:31.167Z,100494.69
2023-04-27T05:21:58.888Z,100507.75
2023-04-27T05:24:26.565Z,100503.81
2023-04-27T05:26:53.997Z,100500.84
2023-04-27T05:29:22.180Z,100511.44
2023-04-27T05:31:49.404Z,100502.75
2023-04-27T05:34:16.699Z,100499.81
2023-04-27T05:36:43.817Z,100506.03
2023-04-27T05:39:10.739Z,100510.75
2023-04-27T05:41:37.714Z,100525.56
2023-04-27T05:44:04.741Z,100518.75
2023-04-27T05:46:31.794Z,100511.69
2023-04-27T05:48:59.061Z,100512.75
2023-04-27T05:51:27.004Z,100518.50
2023-04-27T05:53:55.324Z,100507.91
2023-04-27T05:56:22.705Z,100509.22
2023-04-27T05:58:49.673Z,100523.31
2023-04-27T06:01:17.000Z,100520.28
2023-04-27T06:03:44.084Z,100507.59
2023-04-27T06:06:11.203Z,100507.59
2023-04-27T06:08:39.451Z,100505.06
2023-04-27T06:11:06.815Z,100512.72
2023-04-27T06:13:34.129Z,100514.13
2023-04-27T06:16:01.854Z,100508.03
2023-04-27T06:18:28.900Z,100515.91
2023-04-27T06:21:01.598Z,100514.75
2023-04-27T06:23:28.690Z,100504.53
2023-04-27T06:25:55.970Z,100514.41
2023-04-27T06:28:23.173Z,100521.09
2023-04-27T06:30:50.239Z,100499.03
2023-04-27T06:33:17.257Z,100495.22
2023-04-27T06:35:47.215Z,100489.72
2023-04-27T06:38:14.507Z,100498.19
2023-04-27T06:40:41.495Z,100488.50
2023-04-27T06:43:08.602Z,100483.75
2023-04-27T06:45:36.062Z,100472.34
2023-04-27T06:48:03.424Z,100484.97
2023-04-27T06:50:30.962Z,100474.31
2023-04-27T06:52:58.048Z,100471.78
2023-04-27T06:55:25.348Z,100466.16
2023-04-27T06:57:52.262Z,100468.63
2023-04-27T07:00:20.064Z,100470.56
2023-04-27T07:02:47.041Z,100467.59
2023-04-27T07:05:14.318Z,100469.03
2023-04-27T07:07:41.301Z,100456.69
2023-04-27T07:10:09.221Z,100456.69
2023-04-27T07:12:37.412Z,100459.00
2023-04-27T07:15:06.563Z,100459.16
2023-04-27T07:17:33.884Z,100461.06
2023-04-27T07:20:07.118Z,100452.19
2023-04-27T07:22:34.139Z,100450.81
2023-04-27T07:25:01.057Z,100449.84
2023-04-27T07:27:28.087Z,100448.97
2023-04-27T07:29:55.051Z,100450.97
2023-04-27T07:32:22.754Z,100451.69
2023-04-27T07:34:53.959Z,100449.00
2023-04-27T07:37:22.615Z,100438.25
2023-04-27T07:39:52.971Z,100440.31
2023-04-27T07:42:22.516Z,100431.50
2023-04-27T07:44:50.352Z,100437.44
2023-04-27T07:47:19.970Z,100434.09
2023-04-27T07:49:47.166Z,100427.97
2023-04-27T07:52:14.595Z,100427.16
2023-04-27T07:54:41.517Z,100421.97
2023-04-27T07:57:10.488Z,100417.41
2023-04-27T07:59:38.168Z,100416.94
2023-04-27T08:02:18.291Z,100412.63
2023-04-27T08:04:46.648Z,100415.78
2023-04-27T08:07:15.980Z,100430.56
2023-04-27T08:09:43.306Z,100421.88
2023-04-27T08:12:10.666Z,100419.78
2023-04-27T08:14:37.619Z,100425.59
2023-04-27T08:17:04.621Z,100435.28
2023-04-27T08:19:31.644Z,100446.81
2023-04-27T08:21:58.512Z,100439.59
2023-04-27T08:24:25.414Z,100436.72
2023-04-27T08:26:52.563Z,100427.34
2023-04-27T08:29:26.985Z,100423.28
2023-04-27T08:31:56.660Z,100413.19
2023-04-27T08:34:24.207Z,100416.78
2023-04-27T08:36:51.287Z,100430.19
2023-04-27T08:39:18.560Z,100427.34
2023-04-27T08:41:46.431Z,100418.38
2023-04-27T08:44:13.567Z,100409.47
2023-04-27T08:46:41.330Z,100407.34
2023-04-27T08:49:09.838Z,100408.59
2023-04-27T08:51:37.028Z,100411.56
2023-04-27T08:54:04.888Z,100409.63
2023-04-27T08:56:32.710Z,100420.16
2023-04-27T08:59:04.566Z,100416.19
2023-04-27T09:01:32.265Z,100404.19
2023-04-27T09:04:02.276Z,100404.50
2023-04-27T09:06:34.281Z,100409.00
2023-04-27T09:09:02.263Z,100416.00
2023-04-27T09:11:36.831Z,100411.59
2023-04-27T09:14:22.786Z,100413.69
2023-04-27T09:16:59.258Z,100408.63
2023-04-27T09:19:28.643Z,100403.75
2023-04-27T09:22:11.400Z,100392.78
2023-04-27T09:24:38.725Z,100397.59
2023-04-27T09:27:08.647Z,100386.09
2023-04-27T09:29:37.573Z,100378.91
2023-04-27T09:32:19.112Z,100375.88
2023-04-27T09:34:46.422Z,100375.66
2023-04-27T09:37:14.543Z,100381.00
2023-04-27T09:39:42.916Z,100385.38
2023-04-27T09:42:12.136Z,100381.16
2023-04-27T09:44:39.020Z,100389.97
2023-04-27T09:47:07.495Z,100392.13
2023-04-27T09:49:35.942Z,100386.81
2023-04-27T09:52:02.882Z,100370.25
2023-04-27T09:54:33.616Z,100363.97
2023-04-27T09:57:12.910Z,100362.31
2023-04-27T10:00:16.297Z,100365.41
2023-04-27T10:03:03.683Z,100361.75
2023-04-27T10:05:43.150Z,100357.50
2023-04-27T10:08:11.691Z,100349.69
2023-04-27T10:10:49.188Z,100355.09
2023-04-27T10:13:24.761Z,100340.88
2023-04-27T10:15:52.457Z,100336.44
2023-04-27T10:18:31.091Z,100331.75
2023-04-27T10:21:10.733Z,100323.63
2023-04-27T10:23:51.301Z,100314.97
2023-04-27T10:26:27.065Z,100309.91
2023-04-27T10:29:08.786Z,100312.66
2023-04-27T10:31:36.238Z,100312.53
2023-04-27T10:34:11.171Z,100323.84
2023-04-27T10:36:40.848Z,100306.50
2023-04-27T10:39:18.483Z,100322.59
2023-04-27T10:41:56.557Z,100302.50
2023-04-27T10:44:29.800Z,100306.03
2023-04-27T10:47:00.047Z,100290.16
2023-04-27T10:49:31.306Z,100288.53
2023-04-27T10:51:59.703Z,100285.72
2023-04-27T10:54:30.179Z,100268.75
2023-04-27T10:57:09.634Z,100274.31
2023-04-27T10:59:52.841Z,100267.25
2023-04-27T11:02:28.842Z,100267.63
2023-04-27T11:04:56.779Z,100268.88
2023-04-27T11:07:29.125Z,100283.94
2023-04-27T11:09:56.227Z,100279.84
2023-04-27T11:12:24.140Z,100267.38
2023-04-27T11:14:51.235Z,100272.72
2023-04-27T11:17:32.459Z,100264.25
2023-04-27T11:19:59.380Z,100262.34
2023-04-27T11:22:26.386Z,100262.31
2023-04-27T11:24:53.838Z,100265.84
2023-04-27T11:27:22.421Z,100270.19
2023-04-27T11:29:49.422Z,100255.78
2023-04-27T11:32:23.910Z,100256.66
2023-04-27T11:34:53.482Z,100249.28
2023-04-27T11:37:27.678Z,100244.78
2023-04-27T11:39:57.442Z,100237.09
2023-04-27T11:42:31.448Z,100213.59
2023-04-27T11:45:03.155Z,100232.56
2023-04-27T11:47:32.749Z,100235.53
2023-04-27T11:50:06.364Z,100223.09
2023-04-27T11:52:39.069Z,100219.16
2023-04-27T11:55:15.776Z,100220.59
2023-04-27T11:57:43.282Z,100222.72
2023-04-27T12:00:11.030Z,100225.44
2023-04-27T12:02:38.695Z,100208.94
2023-04-27T12:05:07.681Z,100215.59
2023-04-27T12:07:34.941Z,100212.97
2023-04-27T12:10:01.947Z,100208.19
2023-04-27T12:12:28.940Z,100204.59
2023-04-27T12:14:55.885Z,100208.03
2023-04-27T12:17:23.240Z,100199.38
2023-04-27T12:19:50.281Z,100204.19
2023-04-27T12:22:17.209Z,100200.56
2023-04-27T12:24:44.147Z,100209.53
2023-04-27T12:27:11.137Z,100205.63
2023-04-27T12:29:38.878Z,100217.81
2023-04-27T12:32:06.161Z,100214.84
2023-04-27T12:34:33.727Z,100213.19
2023-04-27T12:37:01.014Z,100208.72
2023-04-27T12:39:28.005Z,100200.59
2023-04-27T12:41:54.901Z,100201.03
2023-04-27T12:44:22.066Z,100197.34
2023-04-27T12:46:49.292Z,100202.38
2023-04-27T12:49:17.159Z,100191.22
2023-04-27T12:51:45.498Z,100210.50
2023-04-27T12:54:12.995Z,100228.16
2023-04-27T12:56:40.211Z,100220.25
2023-04-27T12:59:07.329Z,100213.09
2023-04-27T13:01:34.664Z,100216.78
2023-04-27T13:04:05.897Z,100193.69
2023-04-27T13:06:33.216Z,100197.56
2023-04-27T13:09:00.462Z,100190.06
2023-04-27T13:11:27.641Z,100183.16
2023-04-27T13:13:55.179Z,100185.19
2023-04-27T13:16:25.182Z,100180.34
2023-04-27T13:18:53.449Z,100167.75
2023-04-27T13:21:20.808Z,100164.69
2023-04-27T13:23:48.270Z,100170.59
2023-04-27T13:26:16.287Z,100158.22
2023-04-27T13:28:44.239Z,100170.75
2023-04-27T13:31:12.424Z,100181.97
2023-04-27T13:33:42.927Z,100181.91
2023-04-27T13:36:11.190Z,100180.53
2023-04-27T13:38:38.463Z,100184.78
2023-04-27T13:41:06.635Z,100181.72
2023-04-27T13:43:33.904Z,100182.16
2023-04-27T13:46:02.471Z,100177.47
2023-04-27T13:48:31.206Z,100183.59
2023-04-27T13:50:58.389Z,100185.13
2023-04-27T13:53:25.971Z,100196.47
2023-04-27T13:55:57.949Z,100183.91
2023-04-27T13:58:27.035Z,100193.50
2023-04-27T14:00:54.590Z,100188.03
2023-04-27T14:03:22.722Z,100193.31
2023-04-27T14:05:51.228Z,100175.03
2023-04-27T14:08:18.625Z,100166.09
2023-04-27T14:10:46.213Z,100177.09
2023-04-27T14:13:13.468Z,100177.72
2023-04-27T14:15:41.375Z,100188.44
2023-04-27T14:18:08.990Z,100174.25
2023-04-27T14:20:37.458Z,100173.31
2023-04-27T14:23:06.186Z,100162.25
2023-04-27T14:25:34.459Z,100166.69
2023-04-27T14:28:04.135Z,100149.91
2023-04-27T14:30:35.330Z,100161.66
2023-04-27T14:33:03.107Z,100164.13
2023-04-27T14:35:30.404Z,100166.13
2023-04-27T14:38:01.886Z,100165.69
2023-04-27T14:40:30.579Z,100153.72
2023-04-27T14:43:01.202Z,100161.06
2023-04-27T14:45:36.615Z,100156.88
2023-04-27T14:48:10.839Z,100162.44
2023-04-27T14:50:37.891Z,100158.19
2023-04-27T14:53:04.931Z,100172.63
2023-04-27T14:55:31.853Z,100171.59
2023-04-27T14:57:58.782Z,100175.44
2023-04-27T15:00:25.934Z,100165.44
2023-04-27T15:02:52.937Z,100152.94
2023-04-27T15:05:20.054Z,100161.84
2023-04-27T15:07:46.990Z,100166.50
2023-04-27T15:10:15.051Z,100152.53
2023-04-27T15:12:42.357Z,100148.47
2023-04-27T15:15:10.480Z,100149.41
2023-04-27T15:17:37.596Z,100152.09
2023-04-27T15:20:05.959Z,100158.81
2023-04-27T15:22:32.925Z,100155.53
2023-04-27T15:24:59.912Z,100145.41
2023-04-27T15:27:26.979Z,100130.16
2023-04-27T15:29:54.921Z,100120.84
2023-04-27T15:32:24.512Z,100119.78
2023-04-27T15:34:51.873Z,100121.97
2023-04-27T15:37:19.068Z,100117.19
2023-04-27T15:39:46.511Z,100129.97
2023-04-27T15:42:13.436Z,100129.75
2023-04-27T15:44:40.368Z,100136.84
2023-04-27T15:47:07.412Z,100122.00
2023-04-27T15:49:37.788Z,100122.25
2023-04-27T15:52:13.204Z,100112.56
2023-04-27T15:54:40.168Z,100094.69
2023-04-27T15:57:07.060Z,100094.47
2023-04-27T15:59:34.008Z,100101.91
2023-04-27T16:02:01.304Z,100102.59
2023-04-27T16:04:28.422Z,100098.31
2023-04-27T16:06:55.711Z,100095.13
2023-04-27T16:09:23.575Z,100094.06
2023-04-27T16:11:50.477Z,100105.25
2023-04-27T16:14:17.456Z,100116.41
2023-04-27T16:16:46.087Z,100106.69
2023-04-27T16:19:13.876Z,100107.91
2023-04-27T16:21:41.185Z,100108.25
2023-04-27T16:24:08.311Z,100157.19
2023-04-27T16:26:35.269Z,100138.94
2023-04-27T16:29:02.225Z,100135.91
2023-04-27T16:31:29.186Z,100164.28
2023-04-27T16:33:56.563Z,100163.06
2023-04-27T16:36:23.892Z,100159.53
2023-04-27T16:38:51.303Z,100152.59
2023-04-27T16:41:18.250Z,100147.72
2023-04-27T16:43:46.487Z,100141.81
2023-04-27T16:46:14.770Z,100153.41
2023-04-27T16:48:41.926Z,100162.53
2023-04-27T16:51:10.659Z,100162.06
2023-04-27T16:53:37.630Z,100150.38
2023-04-27T16:56:04.965Z,100172.28
2023-04-27T16:58:34.513Z,100179.91
2023-04-27T17:01:01.697Z,100178.19
2023-04-27T17:03:28.826Z,100180.81
2023-04-27T17:05:55.929Z,100183.63
2023-04-27T17:08:23.412Z,100174.75
2023-04-27T17:10:50.892Z,100188.97
2023-04-27T17:13:17.942Z,100194.31
2023-04-27T17:15:44.926Z,100184.41
2023-04-27T17:18:11.930Z,100189.91
2023-04-27T17:20:41.612Z,100185.16
2023-04-27T17:23:09.759Z,100179.81
2023-04-27T17:25:36.862Z,100151.75
2023-04-27T17:28:03.926Z,100128.53
2023-04-27T17:30:31.008Z,100124.00
2023-04-27T17:32:58.236Z,100131.22
2023-04-27T17:35:25.413Z,100145.47
2023-04-27T17:37:53.433Z,100146.72
2023-04-27T17:40:21.134Z,100142.31
2023-04-27T17:42:48.908Z,100133.59
2023-04-27T17:45:16.347Z,100129.03
2023-04-27T17:47:43.217Z,100131.91
2023-04-27T17:50:10.967Z,100141.16
2023-04-27T17:52:37.962Z,100149.66
2023-04-27T17:55:05.511Z,100148.19
2023-04-27T17:57:32.989Z,100152.00
2023-04-27T17:59:59.883Z,100158.31
2023-04-27T18:02:27.033Z,100166.13
2023-04-27T18:04:54.061Z,100167.91
2023-04-27T18:07:20.965Z,100187.31
2023-04-27T18:09:48.017Z,100218.47
2023-04-27T18:12:14.958Z,100229.34
2023-04-27T18:14:41.970Z,100222.09
2023-04-27T18:17:08.873Z,100196.38
2023-04-27T18:19:35.989Z,100183.75
2023-04-27T18:22:03.019Z,100180.13
2023-04-27T18:24:29.913Z,100177.88
2023-04-27T18:26:56.781Z,100167.94
2023-04-27T18:29:23.693Z,100175.97
2023-04-27T18:31:51.577Z,100185.13
2023-04-27T18:34:18.788Z,100185.81
2023-04-27T18:36:52.017Z,100180.13
2023-04-27T18:39:20.350Z,100180.38
2023-04-27T18:41:47.435Z,100205.09
2023-04-27T18:44:15.779Z,100212.34
2023-04-27T18:46:42.959Z,100229.69
2023-04-27T18:49:09.950Z,100232.03
2023-04-27T18:51:36.991Z,100250.31
2023-04-27T18:56:31.603Z,100241.16
2023-04-27T18:59:00.290Z,100241.66
2023-04-27T19:01:31.376Z,100222.28
2023-04-27T19:03:59.190Z,100220.47
2023-04-27T19:06:27.560Z,100231.06
2023-04-27T19:08:54.556Z,100229.06
2023-04-27T19:11:22.423Z,100246.81
2023-04-27T19:13:50.622Z,100225.00
2023-04-27T19:16:18.050Z,100221.31
2023-04-27T19:18:45.080Z,100209.09
2023-04-27T19:21:12.873Z,100214.63
2023-04-27T19:23:40.165Z,100205.31
2023-04-27T19:26:13.255Z,100210.84
2023-04-27T19:28:42.685Z,100211.19
2023-04-27T19:31:10.105Z,100214.31
2023-04-27T19:33:37.251Z,100215.41
2023-04-27T19:36:04.673Z,100224.78
2023-04-27T19:38:31.991Z,100234.84
2023-04-27T19:40:58.963Z,100239.09
2023-04-27T19:43:25.865Z,100240.13
2023-04-27T19:45:52.812Z,100235.50
2023-04-27T19:48:19.716Z,100223.38
2023-04-27T19:50:46.689Z,100218.34
2023-04-27T19:53:13.894Z,100215.59
2023-04-27T19:55:42.277Z,100220.31
2023-04-27T19:58:09.420Z,100214.63
2023-04-27T20:00:36.392Z,100212.03
2023-04-27T20:03:03.794Z,100208.78
2023-04-27T20:05:31.561Z,100207.97
2023-04-27T20:07:58.726Z,100210.91
2023-04-27T20:10:25.678Z,100208.78
2023-04-27T20:12:56.511Z,100204.53
2023-04-27T20:15:25.051Z,100202.41
2023-04-27T20:17:53.385Z,100198.53
2023-04-27T20:20:20.855Z,100191.81
2023-04-27T20:22:47.836Z,100187.22
2023-04-27T20:25:14.966Z,100196.19
2023-04-27T20:27:42.153Z,100199.47
2023-04-27T20:30:09.708Z,100200.59
2023-04-27T20:32:39.380Z,100200.66
2023-04-27T20:35:11.276Z,100206.69
2023-04-27T20:37:40.170Z,100212.06
2023-04-27T20:40:08.143Z,100211.94
2023-04-27T20:42:35.994Z,100203.91
2023-04-27T20:45:05.501Z,100213.03
2023-04-27T20:47:32.785Z,100209.16
2023-04-27T20:49:59.810Z,100204.56
2023-04-27T20:52:30.243Z,100196.38
2023-04-27T20:54:58.092Z,100196.41
2023-04-27T20:57:25.064Z,100204.53
2023-04-27T20:59:51.945Z,100206.78
2023-04-27T21:02:18.913Z,100219.44
2023-04-27T21:04:46.116Z,100217.13
2023-04-27T21:07:14.131Z,100196.13
2023-04-27T21:09:41.496Z,100196.97
2023-04-27T21:12:08.925Z,100195.34
2023-04-27T21:14:36.083Z,100188.00
2023-04-27T21:17:03.497Z,100189.50
2023-04-27T21:19:30.558Z,100180.34
2023-04-27T21:21:57.449Z,100183.75
2023-04-27T21:24:24.770Z,100178.53
2023-04-27T21:26:51.871Z,100182.63
2023-04-27T21:29:18.856Z,100170.91
2023-04-27T21:31:45.765Z,100171.84
2023-04-27T21:34:13.300Z,100173.81
2023-04-27T21:36:40.507Z,100169.28
2023-04-27T21:39:07.412Z,100154.41
2023-04-27T21:41:39.243Z,100154.25
2023-04-27T21:44:06.202Z,100136.63
2023-04-27T21:46:33.197Z,100137.75
2023-04-27T21:49:00.194Z,100135.50
2023-04-27T21:51:27.216Z,100139.28
2023-04-27T21:53:54.080Z,100135.00
2023-04-27T21:56:21.204Z,100131.59
2023-04-27T21:58:48.109Z,100136.97
2023-04-27T22:01:15.107Z,100128.78
2023-04-27T22:03:42.489Z,100133.38
2023-04-27T22:06:09.516Z,100132.56
2023-04-27T22:08:36.458Z,100131.72
2023-04-27T22:11:03.364Z,100137.31
2023-04-27T22:13:30.294Z,100133.69
2023-04-27T22:15:57.466Z,100144.47
2023-04-27T22:18:24.485Z,100137.09
2023-04-27T22:20:51.705Z,100137.94
2023-04-27T22:23:18.773Z,100132.88
2023-04-27T22:25:46.506Z,100128.97
2023-04-27T22:28:13.627Z,100142.19
2023-04-27T22:30:44.112Z,100136.13
2023-04-27T22:33:11.308Z,100126.53
2023-04-27T22:35:38.538Z,100135.00
2023-04-27T22:38:05.988Z,100133.00
2023-04-27T22:40:32.859Z,100130.09
2023-04-27T22:42:59.883Z,100132.69
2023-04-27T22:45:26.791Z,100113.44
2023-04-27T22:47:53.777Z,100119.03
2023-04-27T22:50:21.058Z,100108.56
2023-04-27T22:52:48.299Z,100110.19
2023-04-27T22:55:15.345Z,100109.84
2023-04-27T22:57:42.279Z,100127.47
2023-04-27T23:00:11.271Z,100117.50
2023-04-27T23:02:40.273Z,100109.69
2023-04-27T23:05:08.472Z,100108.66
2023-04-27T23:07:36.063Z,100113.75
2023-04-27T23:10:03.494Z,100107.81
2023-04-27T23:12:31.306Z,100116.28
2023-04-27T23:14:59.069Z,100127.47
2023-04-27T23:17:30.523Z,100122.38
2023-04-27T23:20:02.078Z,100123.09
2023-04-27T23:22:29.489Z,100114.28
2023-04-27T23:24:56.732Z,100094.41
2023-04-27T23:27:24.822Z,100108.03
2023-04-27T23:29:52.563Z,100096.19
2023-04-27T23:32:19.675Z,100091.19
2023-04-27T23:34:46.804Z,100091.09
2023-04-27T23:37:13.777Z,100099.03
2023-04-27T23:39:40.928Z,100108.16
2023-04-27T23:42:07.855Z,100113.84
2023-04-27T23:44:34.838Z,100103.41
2023-04-27T23:47:01.712Z,100107.00
2023-04-27T23:49:28.763Z,100098.81
2023-04-27T23:51:55.964Z,100107.53
2023-04-27T23:54:23.296Z,100110.97
2023-04-27T23:56:53.389Z,100121.84
2023-04-27T23:59:20.335Z,100111.88
